Time;durP1;ratioP1;P1;durP2;ratioP2;P2;SDS_P1;SDS_P2;PMS_P1;PMS_P2;Temp;Humidity;BMP_temperature;BMP_pressure;BME280_temperature;BME280_humidity;BME280_pressure;Samples;Min_cycle;Max_cycle;Signal;HPM_P1;HPM_P2
2023/07/18 00:02:13;;;;;;;5.33;5.23;;;12.40;99.90;;;;;;5019501;28;20461;-66
2023/07/18 00:04:41;;;;;;;5.63;5.53;;;12.30;99.90;;;;;;5017323;28;20497;-66
2023/07/18 00:07:08;;;;;;;5.60;5.50;;;12.30;99.90;;;;;;5024507;28;20546;-66
2023/07/18 00:09:37;;;;;;;5.30;5.20;;;12.30;99.90;;;;;;5012273;28;20470;-66
2023/07/18 00:12:06;;;;;;;5.43;5.33;;;12.30;99.90;;;;;;5022788;28;20488;-66
2023/07/18 00:14:33;;;;;;;5.00;5.00;;;12.20;99.90;;;;;;5026427;28;20905;-66
2023/07/18 00:17:00;;;;;;;6.23;6.13;;;12.20;99.90;;;;;;5026025;28;20550;-64
2023/07/18 00:19:27;;;;;;;5.70;5.60;;;12.20;99.90;;;;;;5024193;28;20469;-66
2023/07/18 00:21:56;;;;;;;5.60;5.50;;;12.30;99.90;;;;;;5013440;28;20988;-64
2023/07/18 00:24:25;;;;;;;6.60;6.47;;;12.20;99.90;;;;;;5022195;28;20495;-66
2023/07/18 00:26:52;;;;;;;5.97;5.87;;;12.30;99.90;;;;;;5026030;28;20539;-65
2023/07/18 00:29:21;;;;;;;5.70;5.60;;;12.40;99.90;;;;;;5029968;28;20962;-65
2023/07/18 00:31:48;;;;;;;6.27;6.17;;;12.40;99.90;;;;;;5022033;28;20854;-66
2023/07/18 00:34:15;;;;;;;5.50;5.40;;;12.40;99.90;;;;;;5009539;28;20976;-65
2023/07/18 00:36:42;;;;;;;6.10;6.00;;;12.30;99.90;;;;;;5023505;28;20461;-65
2023/07/18 00:39:09;;;;;;;6.00;5.90;;;12.30;99.90;;;;;;5023562;28;20627;-65
2023/07/18 00:41:35;;;;;;;5.87;5.77;;;12.20;99.90;;;;;;5025992;28;20688;-66
2023/07/18 00:44:04;;;;;;;6.20;6.10;;;12.10;99.90;;;;;;5015395;28;20474;-66
2023/07/18 00:46:32;;;;;;;6.60;6.50;;;12.10;99.90;;;;;;5029359;28;20456;-65
2023/07/18 00:48:59;;;;;;;6.90;6.80;;;12.20;99.90;;;;;;5020555;28;20453;-65
2023/07/18 00:51:27;;;;;;;6.40;6.30;;;12.20;99.90;;;;;;5026758;28;21006;-66
2023/07/18 00:53:55;;;;;;;6.10;6.00;;;12.30;99.90;;;;;;5025304;28;20450;-65
2023/07/18 00:56:23;;;;;;;6.13;6.03;;;12.40;99.90;;;;;;5015421;28;20768;-64
2023/07/18 00:58:50;;;;;;;5.90;5.80;;;12.50;99.90;;;;;;5028106;28;20457;-65
2023/07/18 01:01:18;;;;;;;6.27;6.17;;;12.50;99.90;;;;;;5024696;28;20468;-66
2023/07/18 01:03:46;;;;;;;6.30;6.20;;;12.40;99.90;;;;;;5027718;28;20468;-66
2023/07/18 01:06:13;;;;;;;6.47;6.37;;;12.30;99.90;;;;;;5018832;28;20469;-65
2023/07/18 01:08:40;;;;;;;6.70;6.60;;;12.20;99.90;;;;;;5020932;28;20485;-65
2023/07/18 01:11:07;;;;;;;7.07;6.93;;;12.20;99.90;;;;;;5017212;28;21042;-65
2023/07/18 01:13:34;;;;;;;6.90;6.80;;;12.10;99.90;;;;;;5014124;28;20460;-66
2023/07/18 01:16:01;;;;;;;6.00;5.90;;;12.30;99.90;;;;;;5028713;28;20670;-65
2023/07/18 01:18:28;;;;;;;5.93;5.83;;;12.40;99.90;;;;;;5019185;28;20468;-66
2023/07/18 01:20:58;;;;;;;6.17;6.07;;;12.60;99.90;;;;;;5024354;28;20749;-66
2023/07/18 01:23:28;;;;;;;6.33;6.13;;;12.70;99.90;;;;;;5022910;28;20461;-65
2023/07/18 01:25:56;;;;;;;5.80;5.70;;;12.70;99.90;;;;;;5018160;28;20555;-64
2023/07/18 01:28:22;;;;;;;6.30;6.10;;;12.60;99.90;;;;;;5018019;28;20456;-65
2023/07/18 01:30:49;;;;;;;6.43;6.23;;;12.60;99.90;;;;;;5015957;28;20885;-66
2023/07/18 01:33:17;;;;;;;6.40;6.20;;;12.50;99.90;;;;;;5012187;28;20456;-66
2023/07/18 01:35:45;;;;;;;7.30;7.10;;;12.40;99.90;;;;;;5027695;28;20473;-65
2023/07/18 01:38:13;;;;;;;7.73;7.53;;;12.30;99.90;;;;;;5026951;28;20472;-66
2023/07/18 01:40:42;;;;;;;7.37;7.17;;;12.20;99.90;;;;;;5024200;28;20453;-65
2023/07/18 01:43:10;;;;;;;7.40;7.20;;;12.20;99.90;;;;;;5018864;28;21047;-65
2023/07/18 01:45:38;;;;;;;7.80;7.60;;;12.20;99.90;;;;;;5025397;28;20971;-65
2023/07/18 01:48:06;;;;;;;7.50;7.30;;;12.20;99.90;;;;;;5021687;28;20555;-64
2023/07/18 01:50:32;;;;;;;8.00;7.80;;;12.20;99.90;;;;;;5017870;28;20473;-66
2023/07/18 01:52:59;;;;;;;8.17;7.97;;;12.30;99.90;;;;;;5026998;28;20488;-66
2023/07/18 01:55:26;;;;;;;7.70;7.50;;;12.30;99.90;;;;;;5026148;28;20475;-65
2023/07/18 01:57:54;;;;;;;9.50;9.20;;;12.40;99.90;;;;;;5028266;28;20485;-67
2023/07/18 02:00:21;;;;;;;8.33;8.07;;;12.50;99.90;;;;;;5028619;28;20460;-65
2023/07/18 02:02:49;;;;;;;8.03;7.83;;;12.50;99.90;;;;;;5019413;28;20464;-65
2023/07/18 02:05:18;;;;;;;8.17;7.97;;;12.40;99.90;;;;;;5020554;28;20996;-67
2023/07/18 02:07:46;;;;;;;8.73;8.43;;;12.40;99.90;;;;;;5020472;28;20551;-65
2023/07/18 02:10:14;;;;;;;8.70;8.40;;;12.20;99.90;;;;;;5026533;28;20460;-65
2023/07/18 02:12:42;;;;;;;9.00;8.70;;;12.20;99.90;;;;;;5023006;28;20484;-66
2023/07/18 02:15:13;;;;;;;9.03;8.73;;;12.20;99.90;;;;;;5024219;28;20496;-65
2023/07/18 02:17:42;;;;;;;9.03;8.73;;;12.00;99.90;;;;;;5026011;28;20983;-66
2023/07/18 02:20:11;;;;;;;9.93;9.63;;;12.00;99.90;;;;;;5022768;28;20472;-66
2023/07/18 02:22:39;;;;;;;9.40;9.10;;;11.90;99.90;;;;;;5024220;28;20457;-66
2023/07/18 02:25:07;;;;;;;9.53;9.23;;;11.80;99.90;;;;;;5027562;28;20476;-67
2023/07/18 02:27:35;;;;;;;9.53;9.23;;;11.70;99.90;;;;;;5026713;28;20940;-65
2023/07/18 02:30:08;;;;;;;10.50;10.10;;;11.70;99.90;;;;;;5021563;28;20555;-66
2023/07/18 02:32:36;;;;;;;10.50;10.10;;;11.60;99.90;;;;;;5016449;28;20491;-66
2023/07/18 02:35:04;;;;;;;10.70;10.30;;;11.50;99.90;;;;;;5027137;28;20472;-66
2023/07/18 02:37:32;;;;;;;10.60;10.20;;;11.40;99.90;;;;;;5009518;28;20468;-66
2023/07/18 02:39:59;;;;;;;10.50;10.10;;;11.40;99.90;;;;;;5025316;28;20472;-67
2023/07/18 02:42:26;;;;;;;10.87;10.47;;;11.30;99.90;;;;;;5025084;28;20469;-67
2023/07/18 02:44:53;;;;;;;10.50;10.10;;;11.40;99.90;;;;;;5027585;28;20464;-66
2023/07/18 02:47:20;;;;;;;10.57;10.07;;;11.40;99.90;;;;;;5019282;28;20538;-66
2023/07/18 02:49:49;;;;;;;10.23;9.93;;;11.40;99.90;;;;;;5024281;28;20469;-66
2023/07/18 02:52:16;;;;;;;11.10;10.70;;;11.40;99.90;;;;;;5023577;28;20535;-65
2023/07/18 02:54:43;;;;;;;10.50;10.10;;;11.40;99.90;;;;;;5022066;28;20472;-67
2023/07/18 02:57:10;;;;;;;10.40;10.00;;;11.40;99.90;;;;;;5025145;28;20940;-65
2023/07/18 02:59:37;;;;;;;10.07;9.77;;;11.40;99.90;;;;;;5026960;28;20453;-65
2023/07/18 03:02:04;;;;;;;10.17;9.87;;;11.40;99.90;;;;;;5025435;28;20503;-67
2023/07/18 03:04:31;;;;;;;10.37;9.97;;;11.50;99.90;;;;;;5027150;28;20460;-67
2023/07/18 03:07:02;;;;;;;10.20;9.90;;;11.60;99.90;;;;;;5020380;28;20464;-67
2023/07/18 03:09:33;;;;;;;9.70;9.40;;;11.70;99.90;;;;;;5027656;28;20534;-67
2023/07/18 03:12:00;;;;;;;10.63;10.23;;;11.70;99.90;;;;;;5021845;28;21003;-65
2023/07/18 03:14:28;;;;;;;10.40;10.03;;;11.80;99.90;;;;;;5026735;28;20878;-67
2023/07/18 03:16:55;;;;;;;10.50;10.10;;;11.80;99.90;;;;;;5027433;28;20480;-66
2023/07/18 03:19:22;;;;;;;11.00;10.60;;;11.70;99.90;;;;;;5019952;28;20526;-67
2023/07/18 03:21:49;;;;;;;10.57;10.17;;;11.70;99.90;;;;;;5031125;28;20499;-65
2023/07/18 03:24:18;;;;;;;10.93;10.53;;;11.70;99.90;;;;;;5026309;28;20465;-65
2023/07/18 03:26:44;;;;;;;10.93;10.53;;;11.60;99.90;;;;;;5030727;28;20506;-66
2023/07/18 03:29:11;;;;;;;11.73;11.33;;;11.40;99.90;;;;;;5026999;28;20461;-65
2023/07/18 03:31:39;;;;;;;11.70;11.30;;;11.20;99.90;;;;;;5027521;28;20476;-66
2023/07/18 03:34:06;;;;;;;11.53;11.13;;;11.10;99.90;;;;;;5029852;28;20457;-66
2023/07/18 03:36:33;;;;;;;11.80;11.40;;;11.00;99.90;;;;;;5023561;28;20851;-67
2023/07/18 03:39:00;;;;;;;12.00;11.60;;;10.80;99.90;;;;;;5023525;28;20464;-66
2023/07/18 03:41:29;;;;;;;11.03;10.63;;;10.70;99.90;;;;;;5028398;28;20465;-66
2023/07/18 03:43:58;;;;;;;10.93;10.53;;;10.70;99.90;;;;;;5027731;28;20461;-67
2023/07/18 03:46:25;;;;;;;10.70;10.30;;;10.60;99.90;;;;;;5029133;28;21060;-66
2023/07/18 03:48:52;;;;;;;10.67;10.27;;;10.60;99.90;;;;;;5022156;28;21508;-65
2023/07/18 03:51:18;;;;;;;11.10;10.70;;;10.60;99.90;;;;;;5026994;28;20648;-68
2023/07/18 03:53:46;;;;;;;10.77;10.37;;;10.60;99.90;;;;;;5025830;28;20611;-66
2023/07/18 03:56:13;;;;;;;10.60;10.20;;;10.60;99.90;;;;;;5030103;28;20492;-66
2023/07/18 03:58:42;;;;;;;10.20;9.90;;;10.50;99.90;;;;;;5030379;28;20461;-68
2023/07/18 04:01:10;;;;;;;10.87;10.47;;;10.50;99.90;;;;;;5026213;28;20996;-66
2023/07/18 04:03:38;;;;;;;10.50;10.10;;;10.50;99.90;;;;;;5029764;28;20476;-67
2023/07/18 04:06:06;;;;;;;10.00;9.70;;;10.50;99.90;;;;;;5024055;28;20453;-66
2023/07/18 04:08:33;;;;;;;9.90;9.60;;;10.50;99.90;;;;;;5023045;28;20492;-65
2023/07/18 04:11:02;;;;;;;9.87;9.57;;;10.70;99.90;;;;;;5029956;28;20496;-67
2023/07/18 04:13:29;;;;;;;9.93;9.63;;;10.80;99.90;;;;;;5029088;28;20524;-67
2023/07/18 04:15:58;;;;;;;10.20;9.87;;;10.90;99.90;;;;;;5029380;28;20488;-65
2023/07/18 04:18:26;;;;;;;9.23;8.93;;;11.00;99.90;;;;;;5026895;28;20460;-66
2023/07/18 04:21:01;;;;;;;9.23;8.93;;;11.10;99.90;;;;;;5028749;28;20468;-68
2023/07/18 04:23:28;;;;;;;9.33;9.03;;;11.20;99.90;;;;;;5021698;28;20464;-68
2023/07/18 04:25:57;;;;;;;9.60;9.30;;;11.30;99.90;;;;;;5013750;28;20998;-67
2023/07/18 04:28:24;;;;;;;9.53;9.23;;;11.30;99.90;;;;;;5018637;28;20555;-66
2023/07/18 04:30:52;;;;;;;9.60;9.30;;;11.50;99.90;;;;;;5024880;28;20476;-67
2023/07/18 04:33:20;;;;;;;9.50;9.20;;;11.50;99.90;;;;;;5018394;28;20497;-68
2023/07/18 04:35:48;;;;;;;9.60;9.30;;;11.50;99.90;;;;;;5020110;28;20882;-67
2023/07/18 04:38:15;;;;;;;9.97;9.67;;;11.50;99.90;;;;;;5030053;28;20582;-67
2023/07/18 04:40:42;;;;;;;10.17;9.87;;;11.50;99.90;;;;;;5024914;28;20461;-66
2023/07/18 04:43:11;;;;;;;10.03;9.73;;;11.40;99.90;;;;;;5016508;28;20990;-66
2023/07/18 04:45:45;;;;;;;10.13;9.83;;;11.40;99.90;;;;;;5025261;28;20461;-67
2023/07/18 04:48:13;;;;;;;9.90;9.60;;;11.50;99.90;;;;;;5018936;28;20526;-65
2023/07/18 04:50:43;;;;;;;9.30;9.00;;;11.50;99.90;;;;;;5013717;28;20552;-67
2023/07/18 04:53:11;;;;;;;9.67;9.37;;;11.60;99.90;;;;;;5029688;28;21028;-65
2023/07/18 04:55:39;;;;;;;9.53;9.23;;;11.70;99.90;;;;;;5022659;28;21333;-67
2023/07/18 04:58:08;;;;;;;9.77;9.47;;;11.70;99.90;;;;;;5030175;28;20477;-66
2023/07/18 05:00:36;;;;;;;8.73;8.43;;;11.80;99.90;;;;;;5023763;28;20461;-68
2023/07/18 05:03:05;;;;;;;8.83;8.53;;;11.90;99.90;;;;;;5017645;28;20476;-66
2023/07/18 05:05:32;;;;;;;8.43;8.13;;;12.00;99.90;;;;;;5011024;28;20468;-67
2023/07/18 05:08:02;;;;;;;8.60;8.30;;;12.10;99.90;;;;;;5028959;28;20490;-67
2023/07/18 05:10:29;;;;;;;8.53;8.23;;;12.20;99.90;;;;;;5026420;28;20816;-66
2023/07/18 05:12:57;;;;;;;9.20;8.90;;;12.30;99.90;;;;;;5022215;28;20492;-66
2023/07/18 05:15:26;;;;;;;9.00;8.70;;;12.40;99.90;;;;;;5022319;28;20492;-67
2023/07/18 05:17:53;;;;;;;9.20;8.90;;;12.50;99.90;;;;;;5029063;28;20955;-66
2023/07/18 05:20:22;;;;;;;9.83;9.53;;;12.60;99.90;;;;;;5015564;28;20920;-68
2023/07/18 05:22:49;;;;;;;12.10;11.53;;;12.80;99.90;;;;;;5026109;28;20469;-66
2023/07/18 05:25:18;;;;;;;10.47;10.07;;;13.00;99.90;;;;;;5023005;28;20470;-66
2023/07/18 05:27:45;;;;;;;10.60;10.20;;;13.10;99.90;;;;;;5018135;28;20497;-67
2023/07/18 05:30:13;;;;;;;10.30;9.93;;;13.30;99.90;;;;;;5020744;28;20512;-64
2023/07/18 05:32:40;;;;;;;9.90;9.60;;;13.40;99.90;;;;;;5020695;28;20485;-65
2023/07/18 05:35:11;;;;;;;9.83;9.53;;;13.50;99.90;;;;;;5020398;28;21007;-67
2023/07/18 05:37:38;;;;;;;10.73;10.33;;;13.60;99.90;;;;;;5025192;28;20797;-66
2023/07/18 05:40:09;;;;;;;10.60;10.20;;;13.70;99.90;;;;;;5020929;28;20456;-66
2023/07/18 05:42:38;;;;;;;10.00;9.70;;;13.90;99.90;;;;;;5014926;28;20463;-66
2023/07/18 05:45:06;;;;;;;10.30;9.90;;;14.00;99.90;;;;;;5014159;28;20955;-65
2023/07/18 05:47:34;;;;;;;9.70;9.40;;;14.10;99.90;;;;;;5011170;28;20493;-66
2023/07/18 05:50:01;;;;;;;10.40;10.00;;;14.20;99.90;;;;;;5023071;28;20575;-66
2023/07/18 05:52:28;;;;;;;10.70;10.10;;;14.40;99.90;;;;;;5014662;28;21107;-65
2023/07/18 05:54:54;;;;;;;10.93;10.53;;;14.60;99.90;;;;;;5015316;28;20467;-65
2023/07/18 05:57:22;;;;;;;10.60;10.20;;;14.70;99.90;;;;;;5026695;28;20472;-66
2023/07/18 05:59:50;;;;;;;10.60;10.20;;;14.80;99.90;;;;;;5019549;28;20461;-64
2023/07/18 06:02:17;;;;;;;10.97;10.57;;;14.90;99.90;;;;;;5017189;28;20544;-66
2023/07/18 06:04:44;;;;;;;10.90;10.50;;;15.10;99.90;;;;;;5027851;28;20661;-66
2023/07/18 06:07:12;;;;;;;10.67;10.27;;;15.20;99.90;;;;;;5020585;28;20835;-65
2023/07/18 06:09:39;;;;;;;11.40;11.00;;;15.30;99.90;;;;;;5016534;28;20449;-65
2023/07/18 06:12:07;;;;;;;12.40;11.87;;;15.40;99.90;;;;;;5017312;28;20489;-65
2023/07/18 06:14:34;;;;;;;11.80;11.40;;;15.60;99.90;;;;;;5023624;28;20498;-67
2023/07/18 06:17:03;;;;;;;12.40;11.90;;;15.70;99.90;;;;;;5011160;28;20454;-65
2023/07/18 06:19:30;;;;;;;11.80;11.40;;;15.80;99.90;;;;;;4987376;28;20459;-65
2023/07/18 06:21:57;;;;;;;12.37;11.87;;;15.90;99.90;;;;;;4999693;28;20470;-66
2023/07/18 06:24:24;;;;;;;13.33;12.83;;;16.10;99.90;;;;;;5005659;28;20480;-66
2023/07/18 06:26:52;;;;;;;12.97;12.47;;;16.30;99.90;;;;;;4990759;28;20474;-67
2023/07/18 06:29:20;;;;;;;13.43;12.83;;;16.50;99.90;;;;;;5001773;28;20557;-66
2023/07/18 06:31:47;;;;;;;12.90;12.40;;;16.60;99.90;;;;;;4997243;28;20976;-64
2023/07/18 06:34:17;;;;;;;12.80;12.30;;;16.70;99.90;;;;;;5011280;28;20500;-66
2023/07/18 06:36:45;;;;;;;14.37;13.77;;;16.80;99.90;;;;;;5021563;28;20576;-66
2023/07/18 06:39:13;;;;;;;13.57;13.07;;;16.90;99.90;;;;;;5014101;28;20457;-65
2023/07/18 06:41:40;;;;;;;14.30;13.53;;;17.00;99.90;;;;;;5003683;28;20491;-66
2023/07/18 06:44:10;;;;;;;13.93;13.33;;;17.10;99.90;;;;;;5006821;28;20468;-67
2023/07/18 06:46:36;;;;;;;13.63;13.13;;;17.30;99.90;;;;;;4995185;28;20462;-65
2023/07/18 06:49:03;;;;;;;14.00;13.40;;;17.50;99.90;;;;;;5011687;28;20462;-66
2023/07/18 06:51:32;;;;;;;14.30;13.70;;;17.50;99.90;;;;;;4997973;28;20519;-67
2023/07/18 06:53:59;;;;;;;13.80;13.30;;;17.70;99.90;;;;;;5005556;28;20990;-67
2023/07/18 06:56:27;;;;;;;14.03;13.43;;;17.80;99.90;;;;;;5014639;28;20483;-66
2023/07/18 06:58:54;;;;;;;13.90;13.33;;;17.70;99.90;;;;;;5007356;28;20542;-67
2023/07/18 07:01:21;;;;;;;13.40;12.90;;;17.80;99.90;;;;;;5008823;28;20470;-65
2023/07/18 07:03:49;;;;;;;15.37;14.37;;;18.00;99.90;;;;;;5017062;28;20465;-65
2023/07/18 07:06:18;;;;;;;13.90;13.30;;;18.10;99.90;;;;;;5019960;28;20467;-65
2023/07/18 07:08:48;;;;;;;14.07;13.47;;;18.30;99.90;;;;;;5012334;28;21702;-65
2023/07/18 07:11:14;;;;;;;14.37;13.67;;;18.30;99.90;;;;;;5004104;28;20523;-65
2023/07/18 07:13:41;;;;;;;14.00;13.40;;;18.50;99.90;;;;;;5018333;28;20492;-67
2023/07/18 07:16:09;;;;;;;13.93;13.33;;;18.60;99.90;;;;;;5026843;28;20500;-65
2023/07/18 07:18:36;;;;;;;14.27;13.67;;;18.70;99.90;;;;;;5025015;28;20490;-65
2023/07/18 07:21:04;;;;;;;14.33;13.73;;;18.90;99.90;;;;;;5030117;28;20485;-66
2023/07/18 07:23:31;;;;;;;14.30;13.70;;;18.80;99.90;;;;;;5029073;28;20479;-67
2023/07/18 07:26:00;;;;;;;15.07;14.47;;;19.00;99.90;;;;;;5023365;28;20457;-65
2023/07/18 07:28:26;;;;;;;14.40;13.80;;;19.30;99.90;;;;;;5029299;28;20461;-67
2023/07/18 07:30:53;;;;;;;14.20;13.60;;;19.40;99.90;;;;;;5028041;28;20464;-65
2023/07/18 07:33:21;;;;;;;14.60;14.00;;;19.60;99.90;;;;;;5025841;28;20488;-66
2023/07/18 07:35:48;;;;;;;14.40;13.80;;;19.70;99.90;;;;;;5029763;28;20531;-67
2023/07/18 07:38:15;;;;;;;14.80;14.20;;;19.80;99.90;;;;;;5015952;28;21325;-67
2023/07/18 07:40:42;;;;;;;15.00;14.40;;;19.90;99.90;;;;;;5022357;28;20471;-67
2023/07/18 07:43:12;;;;;;;14.67;14.07;;;20.00;99.90;;;;;;5022877;28;20810;-66
2023/07/18 07:45:38;;;;;;;14.43;13.83;;;20.10;99.90;;;;;;5017643;28;20464;-67
2023/07/18 07:48:05;;;;;;;15.23;14.63;;;20.20;99.90;;;;;;5023074;28;20469;-67
2023/07/18 07:50:34;;;;;;;14.70;14.10;;;20.40;99.90;;;;;;5024433;28;20522;-67
2023/07/18 07:53:01;;;;;;;15.00;14.40;;;20.30;99.90;;;;;;5026993;28;20492;-67
2023/07/18 07:55:28;;;;;;;14.90;14.30;;;20.50;99.90;;;;;;5016674;28;20472;-67
2023/07/18 07:57:55;;;;;;;14.97;14.37;;;20.50;99.90;;;;;;5022774;28;20575;-66
2023/07/18 08:00:23;;;;;;;15.20;14.60;;;20.60;99.90;;;;;;5026430;28;20489;-65
2023/07/18 08:02:50;;;;;;;15.07;14.47;;;20.90;99.90;;;;;;5024166;28;20456;-65
2023/07/18 08:05:17;;;;;;;14.87;14.27;;;21.10;99.90;;;;;;5020828;28;20452;-64
2023/07/18 08:07:44;;;;;;;14.97;14.37;;;21.40;99.90;;;;;;5023290;28;20867;-65
2023/07/18 08:10:11;;;;;;;15.40;14.80;;;21.70;99.90;;;;;;5023960;28;20476;-64
2023/07/18 08:12:38;;;;;;;15.23;14.63;;;21.80;99.90;;;;;;5017448;28;20468;-67
2023/07/18 08:15:06;;;;;;;15.40;14.80;;;22.10;99.90;;;;;;5023968;28;20495;-65
2023/07/18 08:17:34;;;;;;;15.67;15.00;;;22.50;99.90;;;;;;5025220;28;20456;-67
2023/07/18 08:20:01;;;;;;;15.70;15.10;;;22.80;99.90;;;;;;5025765;28;21127;-65
2023/07/18 08:22:28;;;;;;;15.10;14.50;;;22.90;99.90;;;;;;5027526;28;20496;-65
2023/07/18 08:24:55;;;;;;;15.60;15.00;;;23.40;99.90;;;;;;5022677;28;20463;-66
2023/07/18 08:27:22;;;;;;;16.20;15.50;;;23.70;99.90;;;;;;5021878;28;20464;-65
2023/07/18 08:29:49;;;;;;;16.13;15.33;;;23.90;99.90;;;;;;5022159;28;20471;-65
2023/07/18 08:32:16;;;;;;;16.10;15.40;;;24.70;99.90;;;;;;5022603;28;20499;-64
2023/07/18 08:34:44;;;;;;;15.97;15.27;;;25.30;99.90;;;;;;5017494;28;20983;-67
2023/07/18 08:37:12;;;;;;;15.77;15.10;;;25.80;99.90;;;;;;5029625;28;20995;-65
2023/07/18 08:39:39;;;;;;;16.30;15.60;;;25.50;99.90;;;;;;5025996;28;20852;-64
2023/07/18 08:42:07;;;;;;;15.73;15.10;;;25.10;99.90;;;;;;5017406;28;20968;-66
2023/07/18 08:44:36;;;;;;;16.77;15.53;;;25.40;99.90;;;;;;5026074;28;20472;-66
2023/07/18 08:47:05;;;;;;;16.57;15.87;;;26.10;99.90;;;;;;5011717;28;20465;-65
2023/07/18 08:49:35;;;;;;;16.90;16.20;;;26.60;99.90;;;;;;5006776;28;20465;-66
2023/07/18 08:52:04;;;;;;;16.00;15.30;;;26.30;99.10;;;;;;5020626;28;20840;-63
2023/07/18 08:54:30;;;;;;;16.53;15.83;;;25.80;99.10;;;;;;5032253;28;20495;-65
2023/07/18 08:56:57;;;;;;;16.47;15.77;;;25.30;99.90;;;;;;5028528;28;20491;-64
2023/07/18 08:59:24;;;;;;;16.47;15.77;;;25.40;99.60;;;;;;5026659;28;20814;-65
2023/07/18 09:01:52;;;;;;;16.43;15.73;;;25.70;99.30;;;;;;5024418;28;20469;-66
2023/07/18 09:04:19;;;;;;;16.47;15.77;;;26.20;99.50;;;;;;5026183;28;20489;-66
2023/07/18 09:06:50;;;;;;;15.30;14.70;;;26.90;97.80;;;;;;5026541;28;20522;-66
2023/07/18 09:09:21;;;;;;;15.77;15.07;;;26.70;96.40;;;;;;5025045;28;20803;-64
2023/07/18 09:11:56;;;;;;;16.30;15.50;;;26.50;96.40;;;;;;5028692;28;20465;-67
2023/07/18 09:14:24;;;;;;;15.70;15.10;;;26.80;95.60;;;;;;5020560;28;20639;-66
2023/07/18 09:16:55;;;;;;;15.60;15.00;;;27.20;95.50;;;;;;5014398;28;20577;-65
2023/07/18 09:19:39;;;;;;;15.83;15.23;;;27.50;94.20;;;;;;5017107;28;20469;-65
2023/07/18 09:22:07;;;;;;;16.90;16.20;;;27.50;94.90;;;;;;5015305;28;20471;-65
2023/07/18 09:24:38;;;;;;;15.73;15.13;;;27.10;93.40;;;;;;5015600;28;20458;-65
2023/07/18 09:27:08;;;;;;;15.50;14.90;;;26.70;94.20;;;;;;5001333;28;20466;-66
2023/07/18 09:29:35;;;;;;;15.90;15.30;;;26.70;94.10;;;;;;5006895;28;20786;-66
2023/07/18 09:32:02;;;;;;;15.87;15.27;;;27.30;94.30;;;;;;5013498;28;20944;-66
2023/07/18 09:34:30;;;;;;;16.43;15.73;;;27.70;93.50;;;;;;5018886;28;20616;-65
2023/07/18 09:36:58;;;;;;;16.20;15.50;;;28.10;92.70;;;;;;5011298;28;20471;-66
2023/07/18 09:39:26;;;;;;;16.80;16.10;;;27.80;92.90;;;;;;5012858;28;20559;-65
2023/07/18 09:41:55;;;;;;;16.73;16.03;;;28.10;93.20;;;;;;4999674;28;20469;-66
2023/07/18 09:44:24;;;;;;;16.83;16.07;;;28.40;93.30;;;;;;5017479;28;20552;-65
2023/07/18 09:46:51;;;;;;;17.60;16.80;;;28.70;92.40;;;;;;5010373;28;20466;-67
2023/07/18 09:49:19;;;;;;;16.40;15.70;;;28.90;91.10;;;;;;5002230;28;20470;-64
2023/07/18 09:51:51;;;;;;;17.60;16.80;;;27.70;91.40;;;;;;5007122;28;20918;-66
2023/07/18 09:54:20;;;;;;;17.13;16.33;;;27.50;91.70;;;;;;4999453;28;20504;-66
2023/07/18 09:56:49;;;;;;;16.97;16.27;;;27.50;92.50;;;;;;5004674;28;20494;-67
2023/07/18 09:59:18;;;;;;;17.40;16.60;;;27.90;91.50;;;;;;5006770;28;20503;-66
2023/07/18 10:01:45;;;;;;;16.50;15.80;;;28.10;90.80;;;;;;5010327;28;20756;-66
2023/07/18 10:04:12;;;;;;;16.80;16.10;;;28.00;90.70;;;;;;5016653;28;20461;-65
2023/07/18 10:06:40;;;;;;;16.57;15.87;;;28.00;91.60;;;;;;5004102;28;20531;-65
2023/07/18 10:09:07;;;;;;;16.80;16.10;;;27.90;91.80;;;;;;5008221;28;20468;-67
2023/07/18 10:12:07;;;;;;;16.30;15.60;;;27.30;91.60;;;;;;4997746;28;20458;-67
2023/07/18 10:14:56;;;;;;;16.87;16.17;;;27.20;92.20;;;;;;5011239;28;21028;-66
2023/07/18 10:17:37;;;;;;;15.80;15.20;;;27.60;92.00;;;;;;5009291;28;20462;-67
2023/07/18 10:20:11;;;;;;;16.80;16.10;;;27.50;91.60;;;;;;5012544;28;20454;-65
2023/07/18 10:22:46;;;;;;;19.43;18.73;;;27.80;91.80;;;;;;5013794;28;20475;-65
2023/07/18 10:25:13;;;;;;;15.33;14.83;;;27.70;91.40;;;;;;5013073;28;20552;-66
2023/07/18 10:27:43;;;;;;;14.70;14.23;;;27.10;91.60;;;;;;4999261;28;20465;-67
2023/07/18 10:30:15;;;;;;;14.50;14.10;;;26.90;93.00;;;;;;5006548;28;20468;-65
2023/07/18 10:32:44;;;;;;;14.90;14.40;;;26.70;92.90;;;;;;5010739;28;20551;-66
2023/07/18 10:35:13;;;;;;;14.57;14.17;;;27.20;92.60;;;;;;5009151;28;20533;-66
2023/07/18 10:37:44;;;;;;;15.03;14.53;;;27.70;91.10;;;;;;5006916;28;20549;-67
2023/07/18 10:40:30;;;;;;;15.27;14.77;;;27.90;89.60;;;;;;5011021;28;20459;-65
2023/07/18 10:42:56;;;;;;;15.00;14.50;;;27.60;89.30;;;;;;5002186;28;20465;-65
2023/07/18 10:45:26;;;;;;;15.67;15.17;;;27.80;89.20;;;;;;5006622;28;20554;-66
2023/07/18 10:47:54;;;;;;;15.10;14.60;;;27.50;89.80;;;;;;5000713;28;20561;-67
2023/07/18 10:50:21;;;;;;;15.60;15.10;;;27.70;87.50;;;;;;5006099;28;20462;-66
2023/07/18 10:52:48;;;;;;;14.27;13.87;;;27.80;88.20;;;;;;5007556;28;20461;-65
2023/07/18 10:55:16;;;;;;;14.90;14.40;;;27.90;89.30;;;;;;5003923;28;20512;-66
2023/07/18 10:57:43;;;;;;;18.87;18.20;;;28.10;89.70;;;;;;5003570;28;20484;-65
2023/07/18 11:00:11;;;;;;;15.83;15.33;;;27.70;88.20;;;;;;5002645;28;20458;-66
2023/07/18 11:02:42;;;;;;;15.10;14.60;;;27.60;89.70;;;;;;5001408;28;21106;-66
2023/07/18 11:05:11;;;;;;;14.23;13.83;;;27.90;86.90;;;;;;5008497;28;20483;-67
2023/07/18 11:07:39;;;;;;;14.20;13.80;;;27.80;87.60;;;;;;4999789;28;20548;-66
2023/07/18 11:10:08;;;;;;;14.40;14.00;;;26.90;87.30;;;;;;5003321;28;20463;-67
2023/07/18 11:12:35;;;;;;;14.47;14.07;;;26.80;87.60;;;;;;5009054;28;20548;-66
2023/07/18 11:15:06;;;;;;;15.00;14.50;;;27.10;87.60;;;;;;5003726;28;20839;-66
2023/07/18 11:17:33;;;;;;;14.57;14.17;;;27.40;87.20;;;;;;5000970;28;20570;-66
2023/07/18 11:20:02;;;;;;;14.73;14.27;;;27.70;86.10;;;;;;5011119;28;20556;-66
2023/07/18 11:22:30;;;;;;;13.97;13.57;;;28.00;85.70;;;;;;5007925;28;20493;-66
2023/07/18 11:24:57;;;;;;;15.33;14.83;;;27.70;86.30;;;;;;5010717;28;20481;-66
2023/07/18 11:27:25;;;;;;;15.23;14.73;;;27.80;87.10;;;;;;5001995;28;20466;-66
2023/07/18 11:29:58;;;;;;;14.97;14.47;;;27.50;87.30;;;;;;4992711;28;20469;-66
2023/07/18 11:32:37;;;;;;;14.90;14.40;;;27.50;86.50;;;;;;5009742;28;20453;-67
2023/07/18 11:35:07;;;;;;;14.00;13.60;;;27.60;88.50;;;;;;5003701;28;20476;-66
2023/07/18 11:37:35;;;;;;;13.90;13.50;;;27.40;88.40;;;;;;5012644;28;20500;-67
2023/07/18 11:40:03;;;;;;;15.00;14.50;;;27.80;90.50;;;;;;5010046;28;20461;-67
2023/07/18 11:42:51;;;;;;;14.23;13.83;;;28.20;90.30;;;;;;5010168;28;20964;-66
2023/07/18 11:45:18;;;;;;;14.73;14.33;;;28.80;86.80;;;;;;5007831;28;20503;-65
2023/07/18 11:47:47;;;;;;;13.40;13.00;;;29.10;85.50;;;;;;5001307;28;20461;-66
2023/07/18 11:50:17;;;;;;;14.10;13.70;;;30.20;86.20;;;;;;5006617;28;20973;-65
2023/07/18 11:52:47;;;;;;;12.93;12.63;;;30.90;82.40;;;;;;5016059;28;20539;-67
2023/07/18 11:55:15;;;;;;;13.30;12.90;;;30.90;80.90;;;;;;5006251;28;20512;-66
2023/07/18 11:57:42;;;;;;;13.00;12.70;;;30.90;79.40;;;;;;5009311;28;20491;-67
2023/07/18 12:00:10;;;;;;;13.23;12.83;;;30.80;79.10;;;;;;5006165;28;20480;-66
2023/07/18 12:02:37;;;;;;;12.77;12.47;;;30.60;78.40;;;;;;5007099;28;20458;-65
2023/07/18 12:05:06;;;;;;;13.10;12.70;;;30.70;78.30;;;;;;5002905;28;20819;-67
2023/07/18 12:07:34;;;;;;;13.20;12.80;;;31.40;76.40;;;;;;5006337;28;20567;-67
2023/07/18 12:10:02;;;;;;;13.27;12.87;;;31.60;76.70;;;;;;5008799;28;20928;-66
2023/07/18 12:12:29;;;;;;;13.43;13.03;;;32.00;76.20;;;;;;5006988;28;20852;-66
2023/07/18 12:14:56;;;;;;;13.80;13.40;;;31.90;73.90;;;;;;5015511;28;20512;-67
2023/07/18 12:17:24;;;;;;;13.43;13.03;;;31.70;72.20;;;;;;5005707;28;20474;-67
2023/07/18 12:19:51;;;;;;;13.90;13.50;;;32.10;73.70;;;;;;5008381;28;20469;-66
2023/07/18 12:22:18;;;;;;;13.93;13.53;;;31.60;72.40;;;;;;4994511;28;20588;-66
2023/07/18 12:24:47;;;;;;;13.73;13.33;;;31.30;72.80;;;;;;5007068;28;20835;-67
2023/07/18 12:27:15;;;;;;;14.17;13.77;;;30.40;73.10;;;;;;5007731;28;20462;-66
2023/07/18 12:29:42;;;;;;;13.43;13.03;;;30.10;74.00;;;;;;5004925;28;20512;-67
2023/07/18 12:32:10;;;;;;;13.93;13.53;;;30.00;75.00;;;;;;5006175;28;20490;-67
2023/07/18 12:34:39;;;;;;;13.50;13.10;;;30.80;73.50;;;;;;5006938;28;20810;-67
2023/07/18 12:37:07;;;;;;;13.33;12.93;;;31.70;72.30;;;;;;5007747;28;20458;-66
2023/07/18 12:39:34;;;;;;;13.60;13.20;;;32.40;70.20;;;;;;4996955;28;20521;-66